Time;durP1;ratioP1;P1;durP2;ratioP2;P2;SDS_P1;SDS_P2;PMS_P1;PMS_P2;Temp;Humidity;BMP_temperature;BMP_pressure;BME280_temperature;BME280_humidity;BME280_pressure;Samples;Min_cycle;Max_cycle;Signal;HPM_P1;HPM_P2
2023/06/17 00:01:32;;;;;;;10.30;8.60;;;14.40;95.90;;;;;;5046955;28;20495;-69
2023/06/17 00:04:03;;;;;;;9.73;8.73;;;14.40;96.30;;;;;;5045401;28;20521;-69
2023/06/17 00:06:31;;;;;;;9.23;8.33;;;14.40;96.70;;;;;;5046896;28;20435;-69
2023/06/17 00:08:59;;;;;;;9.23;8.40;;;14.20;96.80;;;;;;5046233;28;20513;-69
2023/06/17 00:11:28;;;;;;;10.40;9.30;;;14.20;96.10;;;;;;5046816;28;20996;-69
2023/06/17 00:13:57;;;;;;;10.50;9.30;;;14.20;96.20;;;;;;5032388;28;20465;-69
2023/06/17 00:16:24;;;;;;;13.90;10.90;;;14.20;96.40;;;;;;5027125;28;20444;-68
2023/06/17 00:18:53;;;;;;;10.70;9.80;;;14.20;96.40;;;;;;5046456;28;20535;-69
2023/06/17 00:21:22;;;;;;;11.27;10.17;;;14.10;96.20;;;;;;5057046;28;20495;-69
2023/06/17 00:23:50;;;;;;;11.00;10.00;;;14.30;96.40;;;;;;5035552;28;20905;-68
2023/06/17 00:26:19;;;;;;;11.07;10.03;;;14.30;96.70;;;;;;5048017;28;20534;-69
2023/06/17 00:28:47;;;;;;;10.53;9.53;;;14.30;96.90;;;;;;5046486;28;20439;-69
2023/06/17 00:31:15;;;;;;;10.93;9.90;;;14.30;96.50;;;;;;5047843;28;20918;-69
2023/06/17 00:33:43;;;;;;;10.27;9.27;;;14.20;97.30;;;;;;5046020;28;20891;-69
2023/06/17 00:36:11;;;;;;;15.63;10.43;;;14.20;97.50;;;;;;5047696;28;20450;-69
2023/06/17 00:38:41;;;;;;;10.97;9.87;;;14.10;96.90;;;;;;5047557;28;20443;-69
2023/06/17 00:41:09;;;;;;;11.53;10.20;;;14.00;96.90;;;;;;5047365;28;20484;-69
2023/06/17 00:43:37;;;;;;;12.43;9.80;;;13.90;97.00;;;;;;5046302;28;20439;-69
2023/06/17 00:46:07;;;;;;;10.27;9.27;;;13.90;96.50;;;;;;5047266;28;20444;-69
2023/06/17 00:48:35;;;;;;;10.40;9.33;;;14.00;96.10;;;;;;5048736;28;20879;-69
2023/06/17 00:51:04;;;;;;;9.87;9.00;;;13.90;96.20;;;;;;5048755;28;20482;-69
2023/06/17 00:53:32;;;;;;;10.47;9.57;;;13.90;97.20;;;;;;5047983;28;20448;-69
2023/06/17 00:56:04;;;;;;;12.60;11.10;;;13.80;96.70;;;;;;5049128;28;20512;-69
2023/06/17 00:58:32;;;;;;;10.60;9.60;;;13.70;97.20;;;;;;5049155;28;20431;-69
2023/06/17 01:01:00;;;;;;;10.70;9.67;;;13.60;97.50;;;;;;5050925;28;20478;-69
2023/06/17 01:03:29;;;;;;;11.43;10.43;;;13.50;98.70;;;;;;5051612;28;20518;-69
2023/06/17 01:06:01;;;;;;;11.80;10.63;;;13.50;99.60;;;;;;5052724;28;20821;-69
2023/06/17 01:08:35;;;;;;;11.40;9.93;;;13.50;99.90;;;;;;5053025;28;20535;-69
2023/06/17 01:11:08;;;;;;;10.93;9.70;;;13.50;99.90;;;;;;5052605;28;20536;-69
2023/06/17 01:13:38;;;;;;;11.40;10.17;;;13.50;99.90;;;;;;5051971;28;20525;-69
2023/06/17 01:16:06;;;;;;;11.83;9.80;;;13.40;99.10;;;;;;5052882;28;20848;-69
2023/06/17 01:18:36;;;;;;;14.83;9.53;;;13.30;98.90;;;;;;5052586;28;20473;-69
2023/06/17 01:21:04;;;;;;;11.07;10.03;;;13.30;99.70;;;;;;5052466;28;20534;-70
2023/06/17 01:23:34;;;;;;;9.93;9.00;;;13.30;99.40;;;;;;5051017;28;20443;-69
2023/06/17 01:26:07;;;;;;;11.07;10.07;;;13.30;99.30;;;;;;5052536;28;20458;-69
2023/06/17 01:28:40;;;;;;;12.53;10.00;;;13.30;99.40;;;;;;5052246;28;20440;-69
2023/06/17 01:31:12;;;;;;;12.97;10.20;;;13.30;99.90;;;;;;5052217;28;20472;-69
2023/06/17 01:33:43;;;;;;;9.93;9.00;;;13.30;99.90;;;;;;5050873;28;20450;-69
2023/06/17 01:36:15;;;;;;;9.00;8.20;;;13.30;99.70;;;;;;5052093;28;20436;-69
2023/06/17 01:38:47;;;;;;;12.03;9.70;;;13.30;99.90;;;;;;5052297;28;20450;-69
2023/06/17 01:41:23;;;;;;;10.70;9.60;;;13.40;99.90;;;;;;5051907;28;20495;-69
2023/06/17 01:43:55;;;;;;;10.53;9.03;;;13.50;99.90;;;;;;5050618;28;20467;-69
2023/06/17 01:46:24;;;;;;;10.00;9.20;;;13.40;99.90;;;;;;5046930;28;20439;-69
2023/06/17 01:48:54;;;;;;;10.87;9.77;;;13.40;99.90;;;;;;5032285;28;20845;-69
2023/06/17 01:51:23;;;;;;;11.50;10.30;;;13.30;99.90;;;;;;5032106;28;20482;-69
2023/06/17 01:53:51;;;;;;;10.30;9.50;;;13.20;99.90;;;;;;5030565;28;20514;-69
2023/06/17 01:56:21;;;;;;;10.67;9.67;;;13.20;99.90;;;;;;5031272;28;20445;-69
2023/06/17 01:58:49;;;;;;;10.07;9.13;;;13.10;99.90;;;;;;5032037;28;21053;-69
2023/06/17 02:01:17;;;;;;;12.70;10.10;;;13.10;99.90;;;;;;5031438;28;20521;-69
2023/06/17 02:03:45;;;;;;;12.27;9.60;;;13.10;99.80;;;;;;5030152;28;20453;-69
2023/06/17 02:06:14;;;;;;;11.40;10.23;;;13.00;99.90;;;;;;5031992;28;20483;-69
2023/06/17 02:08:42;;;;;;;11.50;9.73;;;13.00;99.90;;;;;;5031206;28;20442;-69
2023/06/17 02:11:10;;;;;;;10.40;9.40;;;13.00;99.90;;;;;;5031138;28;21016;-69
2023/06/17 02:13:39;;;;;;;10.33;9.30;;;12.90;99.90;;;;;;5029923;28;20942;-69
2023/06/17 02:16:07;;;;;;;10.23;9.40;;;12.90;99.90;;;;;;5031703;28;20485;-69
2023/06/17 02:18:35;;;;;;;10.87;9.97;;;12.80;99.90;;;;;;5031202;28;20456;-69
2023/06/17 02:21:03;;;;;;;11.73;10.53;;;12.70;99.90;;;;;;5031528;28;20472;-69
2023/06/17 02:23:31;;;;;;;12.97;10.83;;;12.70;99.90;;;;;;5029861;28;20453;-69
2023/06/17 02:25:59;;;;;;;10.40;9.40;;;12.60;99.90;;;;;;5031662;28;20459;-69
2023/06/17 02:28:27;;;;;;;9.93;9.03;;;12.60;99.90;;;;;;5031099;28;20445;-69
2023/06/17 02:30:57;;;;;;;10.07;9.17;;;12.60;99.90;;;;;;5031340;28;20472;-69
2023/06/17 02:33:25;;;;;;;10.57;9.57;;;12.70;99.90;;;;;;5030179;28;20453;-69
2023/06/17 02:35:53;;;;;;;10.07;9.17;;;12.60;99.90;;;;;;5031216;28;21000;-69
2023/06/17 02:38:24;;;;;;;12.00;10.80;;;12.60;99.90;;;;;;5031260;28;20495;-69
2023/06/17 02:40:52;;;;;;;10.87;9.77;;;12.50;99.90;;;;;;5030956;28;20986;-69
2023/06/17 02:43:20;;;;;;;10.27;9.00;;;12.50;99.90;;;;;;5030125;28;20938;-69
2023/06/17 02:45:48;;;;;;;10.17;9.13;;;12.40;99.90;;;;;;5031485;28;20479;-69
2023/06/17 02:48:17;;;;;;;11.33;10.33;;;12.60;99.90;;;;;;5031033;28;20498;-69
2023/06/17 02:50:46;;;;;;;10.50;9.50;;;12.50;99.90;;;;;;5031823;28;20486;-69
2023/06/17 02:53:15;;;;;;;10.87;9.93;;;12.40;99.90;;;;;;5032763;28;20494;-69
2023/06/17 02:55:45;;;;;;;12.93;10.80;;;12.50;99.90;;;;;;5033593;28;20437;-69
2023/06/17 02:58:14;;;;;;;9.73;8.80;;;12.40;99.90;;;;;;5031409;28;20816;-69
2023/06/17 03:00:42;;;;;;;11.03;9.67;;;12.50;99.90;;;;;;5030814;28;20526;-68
2023/06/17 03:03:10;;;;;;;10.33;9.30;;;12.50;99.90;;;;;;5029439;28;20962;-68
2023/06/17 03:05:41;;;;;;;10.73;9.80;;;12.40;99.90;;;;;;5031009;28;20452;-69
2023/06/17 03:08:09;;;;;;;8.47;7.77;;;12.40;99.90;;;;;;5030857;28;20440;-69
2023/06/17 03:10:37;;;;;;;9.97;8.60;;;12.40;99.90;;;;;;5030317;28;20472;-69
2023/06/17 03:13:05;;;;;;;9.97;9.07;;;12.40;99.90;;;;;;5029150;28;20490;-68
2023/06/17 03:15:33;;;;;;;10.17;9.13;;;12.30;99.90;;;;;;5030414;28;20448;-69
2023/06/17 03:18:01;;;;;;;12.20;10.03;;;12.20;99.90;;;;;;5029874;28;20439;-69
2023/06/17 03:20:29;;;;;;;9.80;8.87;;;12.30;99.90;;;;;;5029982;28;21235;-69
2023/06/17 03:23:02;;;;;;;10.27;9.40;;;12.20;99.90;;;;;;5028421;28;20696;-69
2023/06/17 03:25:31;;;;;;;12.00;10.87;;;12.40;99.90;;;;;;5030213;28;20816;-69
2023/06/17 03:28:01;;;;;;;12.43;11.17;;;12.50;99.90;;;;;;5030867;28;20451;-69
2023/06/17 03:30:30;;;;;;;9.90;9.03;;;12.50;99.90;;;;;;5029708;28;20447;-69
2023/06/17 03:32:58;;;;;;;9.87;8.93;;;12.50;99.90;;;;;;5028603;28;20900;-69
2023/06/17 03:35:26;;;;;;;9.50;8.60;;;12.40;99.90;;;;;;5030199;28;20499;-69
2023/06/17 03:37:54;;;;;;;9.60;8.60;;;12.60;99.90;;;;;;5030287;28;21309;-69
2023/06/17 03:40:24;;;;;;;10.37;9.40;;;12.50;99.90;;;;;;5030189;28;20480;-69
2023/06/17 03:42:54;;;;;;;12.50;9.40;;;12.40;99.90;;;;;;5028309;28;20504;-69
2023/06/17 03:45:22;;;;;;;9.60;8.70;;;12.30;99.90;;;;;;5030084;28;20448;-70
2023/06/17 03:47:50;;;;;;;9.90;9.03;;;12.40;99.90;;;;;;5029981;28;20566;-69
2023/06/17 03:50:18;;;;;;;11.13;9.30;;;12.40;99.90;;;;;;5029448;28;20949;-69
2023/06/17 03:52:46;;;;;;;12.43;11.23;;;12.50;99.90;;;;;;5028370;28;20562;-70
2023/06/17 03:55:16;;;;;;;9.23;8.00;;;12.50;99.90;;;;;;5029672;28;20457;-69
2023/06/17 03:57:45;;;;;;;8.77;7.93;;;12.60;99.90;;;;;;5029576;28;20487;-69
2023/06/17 04:00:15;;;;;;;9.90;8.60;;;12.60;99.90;;;;;;5029834;28;20522;-69
2023/06/17 04:02:45;;;;;;;10.20;9.13;;;12.70;99.90;;;;;;5028555;28;20446;-69
2023/06/17 04:05:14;;;;;;;10.63;9.63;;;12.70;99.90;;;;;;5029768;28;20438;-69
2023/06/17 04:07:42;;;;;;;9.60;8.70;;;12.60;99.90;;;;;;5029788;28;20503;-69
2023/06/17 04:10:10;;;;;;;9.53;8.53;;;12.80;99.90;;;;;;5029320;28;20452;-69
2023/06/17 04:12:39;;;;;;;9.73;8.70;;;13.00;99.90;;;;;;5028242;28;21035;-69
2023/06/17 04:15:09;;;;;;;8.70;8.00;;;13.10;99.90;;;;;;5029420;28;20509;-69
2023/06/17 04:17:38;;;;;;;10.77;9.60;;;13.20;99.90;;;;;;5029803;28;20521;-69
2023/06/17 04:20:10;;;;;;;9.90;8.93;;;13.30;99.90;;;;;;5029610;28;20456;-69
2023/06/17 04:22:39;;;;;;;12.90;8.83;;;13.50;99.90;;;;;;5028423;28;20533;-69
2023/06/17 04:25:09;;;;;;;9.60;8.80;;;13.50;99.90;;;;;;5029999;28;20476;-69
2023/06/17 04:27:38;;;;;;;10.40;9.37;;;13.50;99.90;;;;;;5030013;28;20437;-69
2023/06/17 04:30:09;;;;;;;8.40;7.70;;;13.60;99.70;;;;;;5029428;28;20531;-69
2023/06/17 04:32:39;;;;;;;8.40;7.60;;;13.60;99.40;;;;;;5028262;28;20473;-68
2023/06/17 04:35:08;;;;;;;8.57;7.90;;;13.80;99.30;;;;;;5031507;28;20475;-68
2023/06/17 04:37:36;;;;;;;9.00;8.20;;;13.80;98.40;;;;;;5033484;28;20452;-68
2023/06/17 04:40:07;;;;;;;9.13;8.30;;;13.90;99.10;;;;;;5033391;28;20579;-69
2023/06/17 04:42:36;;;;;;;8.20;7.50;;;13.90;99.90;;;;;;5032070;28;20973;-69
2023/06/17 04:45:05;;;;;;;10.80;8.10;;;14.00;97.30;;;;;;5033271;28;20447;-69
2023/06/17 04:47:35;;;;;;;9.00;8.17;;;14.00;97.10;;;;;;5032992;28;20451;-69
2023/06/17 04:50:03;;;;;;;9.33;8.53;;;14.10;98.60;;;;;;5033555;28;20521;-69
2023/06/17 04:52:32;;;;;;;9.20;8.23;;;14.20;99.00;;;;;;5032003;28;20467;-69
2023/06/17 04:55:00;;;;;;;10.07;9.17;;;14.30;99.30;;;;;;5032941;28;20456;-69
2023/06/17 04:57:28;;;;;;;10.70;9.70;;;14.50;98.70;;;;;;5033149;28;20535;-69
2023/06/17 04:59:56;;;;;;;9.43;8.60;;;14.60;97.10;;;;;;5033346;28;20447;-69
2023/06/17 05:02:24;;;;;;;10.43;9.53;;;14.80;97.20;;;;;;5031986;28;20462;-68
2023/06/17 05:04:53;;;;;;;10.77;9.77;;;14.90;97.30;;;;;;5033194;28;20813;-68
2023/06/17 05:07:21;;;;;;;10.07;9.07;;;15.00;97.10;;;;;;5033272;28;20461;-68
2023/06/17 05:09:49;;;;;;;10.93;9.80;;;15.10;96.80;;;;;;5032773;28;20704;-68
2023/06/17 05:12:17;;;;;;;10.40;8.90;;;15.10;98.70;;;;;;5032387;28;20500;-69
2023/06/17 05:14:46;;;;;;;10.93;9.83;;;15.20;97.60;;;;;;5032291;28;20979;-68
2023/06/17 05:17:14;;;;;;;9.57;8.67;;;15.40;96.50;;;;;;5032901;28;20532;-69
2023/06/17 05:19:42;;;;;;;9.37;8.50;;;15.60;95.90;;;;;;5032613;28;20445;-69
2023/06/17 05:22:11;;;;;;;9.50;8.50;;;15.80;95.00;;;;;;5031985;28;20474;-68
2023/06/17 05:24:39;;;;;;;9.83;8.87;;;15.90;94.40;;;;;;5031469;28;20447;-69
2023/06/17 05:27:08;;;;;;;9.70;8.70;;;16.00;92.50;;;;;;5032567;28;20454;-68
2023/06/17 05:29:36;;;;;;;10.73;9.73;;;16.00;94.00;;;;;;5032660;28;20813;-69
2023/06/17 05:32:07;;;;;;;11.23;9.00;;;16.20;92.80;;;;;;5032311;28;20461;-69
2023/06/17 05:34:35;;;;;;;9.40;8.57;;;16.40;92.60;;;;;;5031497;28;20519;-68
2023/06/17 05:37:04;;;;;;;10.33;9.50;;;16.40;91.30;;;;;;5032012;28;20962;-69
2023/06/17 05:39:33;;;;;;;9.37;8.53;;;16.50;92.30;;;;;;5032266;28;20539;-69
2023/06/17 05:42:01;;;;;;;8.80;8.00;;;16.50;91.30;;;;;;5031693;28;21054;-69
2023/06/17 05:44:29;;;;;;;10.20;8.60;;;16.60;91.40;;;;;;5031478;28;20467;-69
2023/06/17 05:46:57;;;;;;;9.07;8.27;;;16.60;90.90;;;;;;5031463;28;20967;-70
2023/06/17 05:49:25;;;;;;;8.47;7.67;;;16.70;91.10;;;;;;5032497;28;20532;-69
2023/06/17 05:51:53;;;;;;;9.20;8.30;;;16.80;90.40;;;;;;5032553;28;21020;-69
2023/06/17 05:54:21;;;;;;;9.80;8.90;;;16.90;90.20;;;;;;5033390;28;20914;-70
2023/06/17 05:56:50;;;;;;;9.77;8.77;;;17.00;90.40;;;;;;5035034;28;20940;-70
2023/06/17 05:59:18;;;;;;;8.90;8.20;;;17.10;88.10;;;;;;5035677;28;20556;-70
2023/06/17 06:01:46;;;;;;;14.80;8.87;;;17.10;86.20;;;;;;5040301;28;20463;-70
2023/06/17 06:04:14;;;;;;;10.17;8.30;;;17.20;83.80;;;;;;5050950;28;20444;-69
2023/06/17 06:06:43;;;;;;;10.33;9.33;;;17.30;83.40;;;;;;5052880;28;20506;-70
2023/06/17 06:09:11;;;;;;;10.53;9.53;;;17.50;82.00;;;;;;5052773;28;20498;-70
2023/06/17 06:11:39;;;;;;;8.70;7.93;;;17.50;80.30;;;;;;5052049;28;20477;-70
2023/06/17 06:14:08;;;;;;;10.00;9.10;;;17.60;80.20;;;;;;5044164;28;21009;-70
2023/06/17 06:16:36;;;;;;;9.13;8.23;;;17.70;78.60;;;;;;5032237;28;20993;-70
2023/06/17 06:19:06;;;;;;;9.70;8.80;;;17.70;78.90;;;;;;5031633;28;20455;-68
2023/06/17 06:21:34;;;;;;;9.20;8.10;;;17.90;77.00;;;;;;5031014;28;20473;-67
2023/06/17 06:24:02;;;;;;;9.93;9.07;;;17.90;79.60;;;;;;5030211;28;20812;-68
2023/06/17 06:26:31;;;;;;;8.83;8.03;;;18.00;78.50;;;;;;5031515;28;20445;-67
2023/06/17 06:28:59;;;;;;;9.97;8.93;;;18.00;78.40;;;;;;5033719;28;20962;-67
2023/06/17 06:31:29;;;;;;;8.90;8.10;;;18.10;79.30;;;;;;5066761;28;20451;-67
2023/06/17 06:33:57;;;;;;;10.33;9.33;;;18.20;76.30;;;;;;5057165;28;20472;-67
2023/06/17 06:36:25;;;;;;;10.03;9.10;;;18.50;76.10;;;;;;5031239;28;20445;-68
2023/06/17 06:38:53;;;;;;;9.50;7.90;;;18.60;75.30;;;;;;5031297;28;20453;-66
2023/06/17 06:41:21;;;;;;;9.60;8.40;;;18.70;75.80;;;;;;5031291;28;20888;-67
2023/06/17 06:43:49;;;;;;;8.67;7.73;;;18.90;73.30;;;;;;5030029;28;20445;-66
2023/06/17 06:46:17;;;;;;;8.93;7.93;;;19.10;72.40;;;;;;5030808;28;21001;-67
2023/06/17 06:48:46;;;;;;;8.30;7.50;;;19.30;71.30;;;;;;5030538;28;20556;-67
2023/06/17 06:51:14;;;;;;;8.53;7.70;;;19.50;71.20;;;;;;5039087;28;20467;-69
2023/06/17 06:53:43;;;;;;;9.80;8.00;;;19.70;70.70;;;;;;5030216;28;20473;-68
2023/06/17 06:56:11;;;;;;;9.47;8.47;;;19.90;69.90;;;;;;5033322;28;20472;-67
2023/06/17 06:58:39;;;;;;;10.40;9.50;;;20.00;69.10;;;;;;5029405;28;20445;-68
2023/06/17 07:01:10;;;;;;;10.37;8.97;;;20.00;67.10;;;;;;5030626;28;21276;-68
2023/06/17 07:03:38;;;;;;;10.33;8.47;;;19.90;68.00;;;;;;5029554;28;20469;-69
2023/06/17 07:06:08;;;;;;;9.60;8.20;;;20.00;68.40;;;;;;5030848;28;20451;-67
2023/06/17 07:08:36;;;;;;;9.13;8.00;;;20.00;68.10;;;;;;5030377;28;20448;-67
2023/06/17 07:11:04;;;;;;;9.40;7.90;;;20.00;66.50;;;;;;5030220;28;20522;-68
2023/06/17 07:13:33;;;;;;;9.93;8.40;;;20.20;67.90;;;;;;5028913;28;20451;-68
2023/06/17 07:16:01;;;;;;;9.23;8.33;;;20.30;65.70;;;;;;5030213;28;20445;-68
2023/06/17 07:18:29;;;;;;;10.17;8.60;;;20.30;65.30;;;;;;5030472;28;20444;-68
2023/06/17 07:20:57;;;;;;;8.47;7.77;;;20.50;64.30;;;;;;5029938;28;20544;-67
2023/06/17 07:23:27;;;;;;;9.13;8.23;;;20.50;64.90;;;;;;5029122;28;20444;-68
2023/06/17 07:25:55;;;;;;;9.47;8.57;;;20.70;67.10;;;;;;5029525;28;21237;-68
2023/06/17 07:28:23;;;;;;;9.30;8.40;;;20.80;65.30;;;;;;5030236;28;20600;-68
2023/06/17 07:30:51;;;;;;;10.17;9.30;;;21.00;62.70;;;;;;5030126;28;20845;-68
2023/06/17 07:33:19;;;;;;;8.60;7.80;;;21.10;63.00;;;;;;5028784;28;20950;-68
2023/06/17 07:35:47;;;;;;;9.40;8.60;;;21.20;63.10;;;;;;5029765;28;20485;-68
2023/06/17 07:38:15;;;;;;;9.60;8.80;;;21.30;65.10;;;;;;5032573;28;20502;-68
2023/06/17 07:40:46;;;;;;;9.30;8.60;;;21.50;62.60;;;;;;5038975;28;21053;-70
2023/06/17 07:43:15;;;;;;;9.67;8.87;;;21.60;63.00;;;;;;5037765;28;20447;-71
2023/06/17 07:45:43;;;;;;;9.23;8.53;;;21.70;58.60;;;;;;5039515;28;20448;-69
2023/06/17 07:48:11;;;;;;;8.40;7.70;;;21.90;58.60;;;;;;5046911;28;20439;-68
2023/06/17 07:50:40;;;;;;;10.20;9.10;;;22.20;58.50;;;;;;5044020;28;20834;-67
2023/06/17 07:53:08;;;;;;;10.43;9.60;;;22.40;58.20;;;;;;5039818;28;20448;-70
2023/06/17 07:55:37;;;;;;;9.70;8.70;;;22.50;56.90;;;;;;5049886;28;20594;-70
2023/06/17 07:58:07;;;;;;;9.07;8.20;;;22.70;59.10;;;;;;5049679;28;20439;-69
2023/06/17 08:00:35;;;;;;;9.50;8.70;;;22.90;58.40;;;;;;5049541;28;20510;-69
2023/06/17 08:03:03;;;;;;;9.40;8.60;;;23.20;58.00;;;;;;5048753;28;20492;-70
2023/06/17 08:05:31;;;;;;;9.40;8.50;;;23.40;55.20;;;;;;5050902;28;20509;-70
2023/06/17 08:07:59;;;;;;;9.30;8.20;;;23.30;54.60;;;;;;5050419;28;20459;-71
2023/06/17 08:10:27;;;;;;;9.27;8.37;;;23.30;54.80;;;;;;5054975;28;20440;-71
2023/06/17 08:12:55;;;;;;;9.30;8.30;;;23.30;54.50;;;;;;5055381;28;20452;-70
2023/06/17 08:15:25;;;;;;;13.70;9.00;;;23.50;54.20;;;;;;5050181;28;20526;-70
2023/06/17 08:17:53;;;;;;;9.27;8.57;;;23.50;54.10;;;;;;5057103;28;20443;-70
2023/06/17 08:20:22;;;;;;;8.93;8.13;;;23.50;53.20;;;;;;5056231;28;20440;-68
2023/06/17 08:22:51;;;;;;;8.50;7.67;;;23.50;52.20;;;;;;5055580;28;20483;-69
2023/06/17 08:25:19;;;;;;;9.07;8.17;;;23.60;51.70;;;;;;5056947;28;20527;-69
2023/06/17 08:27:47;;;;;;;7.90;7.00;;;23.70;52.00;;;;;;5056836;28;20444;-70
2023/06/17 08:30:15;;;;;;;8.83;8.03;;;23.80;52.00;;;;;;5057070;28;20547;-69
2023/06/17 08:32:45;;;;;;;8.97;7.53;;;23.90;51.20;;;;;;5055702;28;20868;-70
2023/06/17 08:35:14;;;;;;;8.10;7.40;;;24.00;51.40;;;;;;5053501;28;20470;-70
2023/06/17 08:37:42;;;;;;;7.80;7.10;;;24.00;50.30;;;;;;5056719;28;20489;-70
2023/06/17 08:40:13;;;;;;;8.53;7.67;;;24.20;50.30;;;;;;5057501;28;20448;-70
2023/06/17 08:42:42;;;;;;;8.30;7.47;;;24.30;49.90;;;;;;5055248;28;20899;-71
2023/06/17 08:45:11;;;;;;;7.47;6.87;;;24.30;49.00;;;;;;5056207;28;20853;-69
2023/06/17 08:47:39;;;;;;;8.00;7.40;;;24.40;50.40;;;;;;5052631;28;20937;-69
2023/06/17 08:50:11;;;;;;;7.97;7.17;;;24.70;49.30;;;;;;5056085;28;20479;-69
2023/06/17 08:52:40;;;;;;;7.80;7.20;;;24.80;47.10;;;;;;5046048;28;20985;-69
2023/06/17 08:55:09;;;;;;;8.40;7.77;;;25.00;46.10;;;;;;5036391;28;20515;-69
2023/06/17 08:57:37;;;;;;;9.00;8.30;;;25.10;45.60;;;;;;5036523;28;20445;-70
2023/06/17 09:00:10;;;;;;;7.47;6.83;;;25.10;45.50;;;;;;5036189;28;20452;-69
2023/06/17 09:02:39;;;;;;;8.60;7.90;;;25.20;46.10;;;;;;5035096;28;20452;-69
2023/06/17 09:05:08;;;;;;;8.70;7.90;;;25.30;47.00;;;;;;5036542;28;20495;-69
2023/06/17 09:07:37;;;;;;;7.50;6.90;;;25.30;45.60;;;;;;5036380;28;20436;-67
2023/06/17 09:10:07;;;;;;;7.33;6.73;;;25.30;46.30;;;;;;5036607;28;20456;-68
2023/06/17 09:12:39;;;;;;;8.30;7.60;;;25.50;48.00;;;;;;5035366;28;20890;-69
2023/06/17 09:15:09;;;;;;;8.20;7.37;;;25.70;44.90;;;;;;5036421;28;20572;-69
2023/06/17 09:17:38;;;;;;;8.50;7.67;;;25.90;43.10;;;;;;5036008;28;20444;-68
2023/06/17 09:20:12;;;;;;;8.40;7.27;;;26.00;44.80;;;;;;5036187;28;20516;-68
2023/06/17 09:22:41;;;;;;;7.90;7.20;;;25.90;43.40;;;;;;5031630;28;20527;-68
2023/06/17 09:25:13;;;;;;;7.60;6.97;;;26.00;43.70;;;;;;5033024;28;20849;-68
2023/06/17 09:27:49;;;;;;;9.90;7.60;;;26.20;43.70;;;;;;5038913;28;20432;-69
2023/06/17 09:30:22;;;;;;;8.50;7.70;;;26.60;44.00;;;;;;5010383;28;21276;-69
2023/06/17 09:32:52;;;;;;;8.93;8.20;;;26.40;43.10;;;;;;5009096;28;20442;-70
2023/06/17 09:35:22;;;;;;;8.73;8.07;;;26.40;43.00;;;;;;5010157;28;20489;-69
2023/06/17 09:37:51;;;;;;;8.80;8.00;;;26.50;42.60;;;;;;5010758;28;20450;-70
2023/06/17 09:40:32;;;;;;;8.57;7.87;;;26.60;41.70;;;;;;5010130;28;20485;-70
2023/06/17 09:43:01;;;;;;;8.90;8.00;;;26.70;41.00;;;;;;5009426;28;20987;-70
2023/06/17 09:45:50;;;;;;;8.80;8.07;;;26.60;41.80;;;;;;5014287;28;20784;-69
2023/06/17 09:48:20;;;;;;;7.87;7.20;;;26.30;43.30;;;;;;5012056;28;20457;-69
2023/06/17 09:50:55;;;;;;;8.50;7.80;;;26.50;42.50;;;;;;5031880;28;20465;-69
2023/06/17 09:53:26;;;;;;;7.57;6.87;;;26.60;40.90;;;;;;5040718;28;20540;-68
2023/06/17 09:55:58;;;;;;;8.33;7.60;;;26.80;41.40;;;;;;5044495;28;20480;-68
2023/06/17 09:58:29;;;;;;;6.83;6.20;;;27.30;39.40;;;;;;5035009;28;20483;-70
2023/06/17 10:00:58;;;;;;;7.70;7.00;;;27.80;39.40;;;;;;5031990;28;20967;-70
2023/06/17 10:03:26;;;;;;;8.30;6.93;;;27.90;38.10;;;;;;5049646;28;20448;-69
2023/06/17 10:06:01;;;;;;;7.97;7.27;;;28.20;36.70;;;;;;5056134;28;20467;-68
2023/06/17 10:08:30;;;;;;;8.30;6.80;;;28.40;36.40;;;;;;5038980;28;20510;-69
2023/06/17 10:11:00;;;;;;;7.40;6.80;;;28.30;35.90;;;;;;5054576;28;20526;-69
2023/06/17 10:13:32;;;;;;;7.70;6.90;;;28.10;37.50;;;;;;5038076;28;20986;-69
2023/06/17 10:16:02;;;;;;;7.73;7.03;;;28.80;34.50;;;;;;5040923;28;20518;-70
2023/06/17 10:18:34;;;;;;;7.20;6.67;;;29.30;32.80;;;;;;5038471;28;20437;-70
2023/06/17 10:21:06;;;;;;;7.43;6.83;;;29.60;32.10;;;;;;5037237;28;20462;-70
2023/06/17 10:23:36;;;;;;;7.03;6.33;;;29.20;32.00;;;;;;5045369;28;20445;-70
2023/06/17 10:26:06;;;;;;;7.60;6.70;;;28.50;33.10;;;;;;5037160;28;20465;-67
2023/06/17 10:28:44;;;;;;;6.43;5.93;;;27.80;34.00;;;;;;5038858;28;20480;-69
2023/06/17 10:31:24;;;;;;;7.10;6.40;;;27.80;36.10;;;;;;5041309;28;20539;-68
2023/06/17 10:33:55;;;;;;;5.90;5.40;;;28.20;34.20;;;;;;5048730;28;20444;-70
2023/06/17 10:36:26;;;;;;;7.13;5.93;;;29.20;33.00;;;;;;5038257;28;20517;-69
2023/06/17 10:38:56;;;;;;;5.30;4.80;;;29.80;29.80;;;;;;5036242;28;20515;-69
2023/06/17 10:41:51;;;;;;;5.50;5.00;;;29.80;29.80;;;;;;5046447;28;21138;-69
2023/06/17 10:44:30;;;;;;;5.40;4.90;;;29.80;28.90;;;;;;5030837;28;20503;-69
2023/06/17 10:46:58;;;;;;;5.27;4.80;;;30.20;28.90;;;;;;5035503;28;21625;-69
2023/06/17 10:49:26;;;;;;;6.50;5.80;;;30.70;28.90;;;;;;5039851;28;20436;-70
2023/06/17 10:51:58;;;;;;;5.33;4.83;;;31.30;27.90;;;;;;5039376;28;21047;-70
2023/06/17 10:54:31;;;;;;;6.10;5.60;;;31.70;27.80;;;;;;5036423;28;20977;-69
2023/06/17 10:57:02;;;;;;;5.90;5.40;;;31.90;29.30;;;;;;5049805;28;20486;-70
2023/06/17 10:59:31;;;;;;;6.03;5.50;;;32.30;27.30;;;;;;5050177;28;20452;-68
2023/06/17 11:02:06;;;;;;;6.53;6.03;;;31.60;27.70;;;;;;5047677;28;20475;-69
2023/06/17 11:04:36;;;;;;;6.83;6.20;;;31.50;29.00;;;;;;5048509;28;20458;-70
2023/06/17 11:07:06;;;;;;;7.77;7.20;;;31.30;29.00;;;;;;5048979;28;20432;-69
2023/06/17 11:09:36;;;;;;;8.40;6.27;;;30.90;29.90;;;;;;5049393;28;20448;-68
2023/06/17 11:12:06;;;;;;;8.73;7.27;;;30.60;30.80;;;;;;5050075;28;20492;-68
2023/06/17 11:14:34;;;;;;;7.83;7.03;;;30.60;30.90;;;;;;5048862;28;20527;-68
2023/06/17 11:17:03;;;;;;;7.50;6.80;;;29.60;31.60;;;;;;5051569;28;21051;-69
2023/06/17 11:19:31;;;;;;;7.07;6.40;;;28.70;33.60;;;;;;5049906;28;20970;-70
2023/06/17 11:22:03;;;;;;;7.63;6.93;;;28.30;33.60;;;;;;5049995;28;20452;-69
2023/06/17 11:24:34;;;;;;;7.53;6.83;;;28.40;34.20;;;;;;5049636;28;20471;-69
2023/06/17 11:27:05;;;;;;;7.30;6.67;;;29.30;32.70;;;;;;5031510;28;20484;-69
2023/06/17 11:29:33;;;;;;;7.10;6.50;;;30.40;33.30;;;;;;5027317;28;20867;-70
2023/06/17 11:32:02;;;;;;;6.47;5.97;;;31.40;31.40;;;;;;5032569;28;20453;-70
2023/06/17 11:34:31;;;;;;;7.03;6.33;;;32.40;29.60;;;;;;5037300;28;20862;-70
2023/06/17 11:37:02;;;;;;;7.10;6.40;;;32.70;28.60;;;;;;5026328;28;20563;-69
2023/06/17 11:39:31;;;;;;;5.90;5.40;;;32.60;28.30;;;;;;5026296;28;20629;-69
2023/06/17 11:42:01;;;;;;;7.23;6.50;;;32.00;28.90;;;;;;5025667;28;20580;-69
2023/06/17 11:44:31;;;;;;;6.50;6.03;;;31.90;28.60;;;;;;5034709;28;20544;-68
2023/06/17 11:47:03;;;;;;;6.70;6.03;;;31.70;28.00;;;;;;5027557;28;20453;-70
2023/06/17 11:49:31;;;;;;;7.43;6.90;;;31.50;27.40;;;;;;5026990;28;20433;-70
2023/06/17 11:52:01;;;;;;;5.77;5.37;;;31.40;27.50;;;;;;5025890;28;20460;-69
2023/06/17 11:54:29;;;;;;;8.50;5.70;;;31.30;28.20;;;;;;5025102;28;20444;-69
2023/06/17 11:56:58;;;;;;;5.80;5.30;;;31.60;27.40;;;;;;5025976;28;20527;-69
2023/06/17 11:59:28;;;;;;;6.03;5.53;;;31.90;27.40;;;;;;5026008;28;20445;-69
2023/06/17 12:01:56;;;;;;;6.27;5.67;;;31.90;26.90;;;;;;5026416;28;20472;-68
2023/06/17 12:04:24;;;;;;;5.20;4.70;;;31.90;26.80;;;;;;5026445;28;20445;-69
2023/06/17 12:06:53;;;;;;;6.33;5.33;;;31.90;25.90;;;;;;5031054;28;20433;-69
2023/06/17 12:09:21;;;;;;;6.00;5.40;;;31.40;25.90;;;;;;5030213;28;20876;-69
2023/06/17 12:11:50;;;;;;;5.70;5.20;;;31.40;26.30;;;;;;5027856;28;20488;-69
2023/06/17 12:14:20;;;;;;;6.20;5.70;;;31.80;25.50;;;;;;5024426;28;20468;-69
2023/06/17 12:16:52;;;;;;;6.17;5.70;;;32.70;25.50;;;;;;5040236;28;20476;-70
2023/06/17 12:19:22;;;;;;;6.70;6.10;;;33.20;25.20;;;;;;5027596;28;20540;-70
2023/06/17 12:21:51;;;;;;;6.10;5.27;;;32.90;24.60;;;;;;5044758;28;21002;-70
2023/06/17 12:24:20;;;;;;;6.07;5.47;;;32.50;25.30;;;;;;5024761;28;20445;-69
2023/06/17 12:26:48;;;;;;;6.13;5.47;;;32.60;24.80;;;;;;5029571;28;20437;-69
2023/06/17 12:29:16;;;;;;;6.17;5.67;;;32.70;24.70;;;;;;5026031;28;20461;-69
2023/06/17 12:31:54;;;;;;;5.30;4.80;;;32.80;24.10;;;;;;5036703;28;20464;-70
2023/06/17 12:34:23;;;;;;;5.87;5.23;;;32.50;24.20;;;;;;5028134;28;20441;-69
2023/06/17 12:36:54;;;;;;;5.70;5.30;;;32.00;26.20;;;;;;5026512;28;20563;-69
2023/06/17 12:39:23;;;;;;;5.67;5.17;;;32.00;25.70;;;;;;5026231;28;20445;-70
2023/06/17 12:41:51;;;;;;;6.27;5.67;;;32.10;25.20;;;;;;5025367;28;20460;-70
2023/06/17 12:44:19;;;;;;;5.73;5.33;;;32.50;25.50;;;;;;5025046;28;21043;-70
2023/06/17 12:46:48;;;;;;;5.87;5.20;;;32.90;25.80;;;;;;5024849;28;20445;-69
2023/06/17 12:49:17;;;;;;;5.67;5.27;;;32.20;25.00;;;;;;5025614;28;20451;-70
2023/06/17 12:51:45;;;;;;;5.50;5.00;;;32.00;25.20;;;;;;5026689;28;20591;-70
2023/06/17 12:54:16;;;;;;;6.33;5.80;;;31.90;25.80;;;;;;5023969;28;21070;-70